Pasig, Philippines
Current Conditions -  °F | °C
As of 11:00 AM on Sunday 21 Dec 2014 (Local Time) from RPLL Reporting Station
Few Clouds Few Clouds  
Wind Chill: 84°   Ceiling: Unl
Heat Index: 92°   Visibility: 6mi
Dew Point: 75°   Wind: 3mph
Humidity: 74%   Direction: NA
Pressure: 29.88"   Gusts: NA
Location:  14.58°N, 121.08°E
Report Text: RPLL 210300Z VRB03KT 9999 FEW025 29/24 Q1012 NOSIG RMK A2988
Loading
Personal Weather Stations






























Interactive Weather Map New forecast layout! Learn more

10-Day Weather Forecast

Advertisements
Track Severe Weather on mobile